Time;durP1;ratioP1;P1;durP2;ratioP2;P2;SDS_P1;SDS_P2;PMS_P1;PMS_P2;Temp;Humidity;BMP_temperature;BMP_pressure;BME280_temperature;BME280_humidity;BME280_pressure;Samples;Min_cycle;Max_cycle;Signal;HPM_P1;HPM_P2
2023/03/07 00:01:06;;;;;;;1.80;1.60;;;16.90;37.50;;;;;;5135929;27;20188;-78
2023/03/07 00:03:33;;;;;;;2.60;1.80;;;16.90;37.50;;;;;;5136008;27;20216;-75
2023/03/07 00:06:02;;;;;;;3.33;1.80;;;16.90;37.50;;;;;;5135589;27;20651;-75
2023/03/07 00:08:29;;;;;;;1.83;1.58;;;16.90;37.50;;;;;;5135600;27;20293;-77
2023/03/07 00:10:56;;;;;;;2.97;1.88;;;16.90;37.60;;;;;;5135140;27;20189;-78
2023/03/07 00:13:24;;;;;;;3.05;1.73;;;16.90;37.60;;;;;;5135716;27;20216;-73
2023/03/07 00:15:53;;;;;;;2.15;1.58;;;16.90;37.60;;;;;;5135500;27;20577;-72
2023/03/07 00:18:20;;;;;;;2.25;1.33;;;16.90;37.60;;;;;;5135258;27;20249;-77
2023/03/07 00:20:57;;;;;;;3.05;1.70;;;16.90;37.60;;;;;;5135331;27;20192;-74
2023/03/07 00:23:24;;;;;;;3.90;1.90;;;16.90;37.60;;;;;;5135455;27;20216;-75
2023/03/07 00:25:58;;;;;;;3.85;1.67;;;16.90;37.70;;;;;;5135384;27;20241;-73
2023/03/07 00:28:25;;;;;;;1.60;1.45;;;16.90;37.70;;;;;;5135135;27;20292;-73
2023/03/07 00:30:53;;;;;;;1.67;1.58;;;16.90;37.70;;;;;;5134710;27;20242;-72
2023/03/07 00:33:20;;;;;;;3.10;1.95;;;16.90;37.70;;;;;;5135359;27;20713;-72
2023/03/07 00:35:55;;;;;;;3.05;1.50;;;16.80;37.70;;;;;;5134976;27;20224;-77
2023/03/07 00:38:23;;;;;;;3.50;1.77;;;16.80;38.40;;;;;;5135000;27;20222;-73
2023/03/07 00:40:57;;;;;;;1.83;1.42;;;16.80;37.70;;;;;;5134799;27;20650;-73
2023/03/07 00:43:25;;;;;;;2.75;1.40;;;16.80;37.70;;;;;;5135004;27;20207;-73
2023/03/07 00:45:53;;;;;;;2.50;1.60;;;16.80;37.70;;;;;;5134592;27;20185;-73
2023/03/07 00:48:21;;;;;;;2.50;1.58;;;16.80;37.80;;;;;;5134984;27;20289;-73
2023/03/07 00:50:48;;;;;;;2.50;1.50;;;16.80;37.80;;;;;;5134820;27;20184;-74
2023/03/07 00:53:16;;;;;;;2.25;1.88;;;16.80;37.80;;;;;;5134928;27;20213;-75
2023/03/07 00:55:53;;;;;;;1.88;1.60;;;16.80;37.80;;;;;;5134903;27;20180;-75
2023/03/07 00:58:20;;;;;;;3.72;1.58;;;16.80;37.90;;;;;;5134446;27;20220;-72
2023/03/07 01:00:48;;;;;;;2.78;1.70;;;16.80;37.90;;;;;;5134761;27;20188;-76
2023/03/07 01:03:17;;;;;;;3.28;2.08;;;16.80;37.90;;;;;;5134785;27;20223;-76
2023/03/07 01:05:44;;;;;;;3.42;1.85;;;16.80;37.90;;;;;;5134695;27;20241;-73
2023/03/07 01:08:11;;;;;;;2.72;1.73;;;16.70;37.80;;;;;;5134585;27;20288;-77
2023/03/07 01:10:39;;;;;;;3.75;1.65;;;16.70;37.80;;;;;;5134355;27;20188;-74
2023/03/07 01:13:06;;;;;;;2.97;1.70;;;16.80;37.90;;;;;;5134228;27;20268;-74
2023/03/07 01:15:34;;;;;;;3.95;1.70;;;16.70;37.90;;;;;;5134485;27;20196;-72
2023/03/07 01:18:01;;;;;;;3.15;1.65;;;16.80;38.00;;;;;;5134281;27;20208;-73
2023/03/07 01:20:31;;;;;;;3.65;1.83;;;16.80;37.90;;;;;;5133016;27;20189;-72
2023/03/07 01:22:58;;;;;;;3.60;1.38;;;16.80;38.00;;;;;;5132267;27;20226;-72
2023/03/07 01:25:25;;;;;;;3.90;1.70;;;16.70;37.90;;;;;;5132612;27;20272;-73
2023/03/07 01:27:54;;;;;;;2.85;1.58;;;16.80;38.00;;;;;;5132309;27;20300;-72
2023/03/07 01:30:21;;;;;;;2.53;1.55;;;16.70;37.90;;;;;;5132506;27;20243;-72
2023/03/07 01:32:53;;;;;;;2.60;1.52;;;16.70;37.90;;;;;;5132385;27;20238;-73
2023/03/07 01:35:20;;;;;;;2.70;1.55;;;16.70;38.00;;;;;;5132213;27;20284;-72
2023/03/07 01:37:50;;;;;;;2.40;1.40;;;16.70;38.00;;;;;;5132058;27;20655;-72
2023/03/07 01:40:18;;;;;;;1.75;1.35;;;16.70;38.10;;;;;;5132318;27;20194;-72
2023/03/07 01:42:45;;;;;;;3.20;1.67;;;16.70;38.10;;;;;;5132368;27;20208;-71
2023/03/07 01:45:46;;;;;;;2.00;1.40;;;16.70;38.10;;;;;;5132136;27;20249;-72
2023/03/07 01:48:13;;;;;;;3.08;1.55;;;16.70;38.10;;;;;;5067553;28;20234;-72
2023/03/07 01:50:40;;;;;;;2.25;1.70;;;16.70;38.10;;;;;;5051301;28;20231;-72
2023/03/07 01:53:10;;;;;;;2.80;1.42;;;16.60;38.00;;;;;;5067879;28;20666;-72
2023/03/07 01:55:38;;;;;;;3.47;1.58;;;16.60;38.10;;;;;;5069491;28;20711;-72
2023/03/07 01:58:08;;;;;;;2.67;1.40;;;16.70;38.10;;;;;;5068764;28;20768;-71
2023/03/07 02:00:37;;;;;;;1.75;1.45;;;16.70;38.20;;;;;;5069665;28;20187;-74
2023/03/07 02:03:10;;;;;;;1.63;1.52;;;16.60;38.20;;;;;;5069485;28;20800;-73
2023/03/07 02:05:40;;;;;;;3.97;1.90;;;16.60;38.20;;;;;;5067047;28;20318;-73
2023/03/07 02:08:13;;;;;;;2.80;1.45;;;16.60;38.20;;;;;;5051187;28;20227;-72
2023/03/07 02:10:41;;;;;;;1.98;1.60;;;16.60;38.20;;;;;;5049330;28;20245;-73
2023/03/07 02:13:09;;;;;;;2.17;1.60;;;16.70;38.20;;;;;;5049591;28;20215;-72
2023/03/07 02:15:37;;;;;;;1.45;1.35;;;16.60;38.20;;;;;;5049291;28;20249;-72
2023/03/07 02:18:05;;;;;;;2.33;1.40;;;16.60;38.20;;;;;;5048901;28;20224;-72
2023/03/07 02:20:40;;;;;;;3.05;1.60;;;16.60;38.20;;;;;;5048841;28;20188;-72
2023/03/07 02:23:12;;;;;;;1.88;1.30;;;16.60;38.20;;;;;;5049404;28;20723;-72
2023/03/07 02:25:44;;;;;;;3.28;1.90;;;16.60;38.20;;;;;;5092353;28;20197;-73
2023/03/07 02:28:16;;;;;;;3.45;1.63;;;16.60;38.20;;;;;;5112080;28;20251;-72
2023/03/07 02:30:54;;;;;;;2.78;1.50;;;16.50;38.10;;;;;;5112067;28;20190;-72
2023/03/07 02:33:23;;;;;;;3.63;1.30;;;16.60;38.20;;;;;;5112160;28;20221;-72
2023/03/07 02:35:55;;;;;;;1.90;1.70;;;16.60;38.30;;;;;;5112258;28;20229;-72
2023/03/07 02:38:22;;;;;;;1.73;1.42;;;16.60;38.20;;;;;;5112324;28;20209;-72
2023/03/07 02:40:50;;;;;;;2.00;1.40;;;16.60;38.20;;;;;;5112045;28;20211;-72
2023/03/07 02:43:19;;;;;;;1.20;1.05;;;16.60;38.20;;;;;;5126546;27;20685;-72
2023/03/07 02:45:47;;;;;;;2.35;1.35;;;16.50;38.20;;;;;;5132948;27;20184;-72
2023/03/07 02:48:15;;;;;;;1.92;1.15;;;16.50;38.20;;;;;;5132390;27;20243;-72
2023/03/07 02:50:42;;;;;;;2.40;1.30;;;16.50;38.10;;;;;;5132445;27;20237;-72
2023/03/07 02:53:09;;;;;;;1.45;1.30;;;16.50;38.20;;;;;;5132995;27;20208;-72
2023/03/07 02:55:36;;;;;;;2.05;1.40;;;16.50;38.20;;;;;;5132550;27;20192;-72
2023/03/07 02:58:03;;;;;;;2.08;1.40;;;16.50;38.20;;;;;;5132760;27;20276;-73
2023/03/07 03:00:32;;;;;;;1.63;1.10;;;16.50;38.20;;;;;;5132807;27;20217;-72
2023/03/07 03:02:59;;;;;;;1.67;1.48;;;16.50;38.20;;;;;;5132398;27;20212;-73
2023/03/07 03:05:26;;;;;;;1.63;1.35;;;16.50;38.20;;;;;;5132710;27;20197;-73
2023/03/07 03:07:53;;;;;;;2.38;1.27;;;16.50;38.20;;;;;;5131920;27;20639;-73
2023/03/07 03:10:20;;;;;;;1.65;1.50;;;16.50;38.20;;;;;;5135479;27;20605;-74
2023/03/07 03:12:47;;;;;;;3.00;1.35;;;16.50;38.20;;;;;;5136397;27;20216;-75
2023/03/07 03:15:15;;;;;;;2.13;1.10;;;16.50;38.20;;;;;;5136883;27;20196;-76
2023/03/07 03:17:44;;;;;;;2.35;1.23;;;16.50;38.20;;;;;;5136339;27;20273;-72
2023/03/07 03:20:12;;;;;;;2.05;1.20;;;16.50;38.20;;;;;;5136742;27;20184;-73
2023/03/07 03:22:40;;;;;;;3.17;1.40;;;16.50;38.30;;;;;;5136244;27;20220;-72
2023/03/07 03:25:09;;;;;;;1.52;1.20;;;16.50;38.30;;;;;;5136840;27;20210;-73
2023/03/07 03:27:36;;;;;;;3.40;1.20;;;16.50;38.30;;;;;;5136217;27;20288;-72
2023/03/07 03:30:05;;;;;;;1.38;1.17;;;16.40;38.30;;;;;;5136106;27;20185;-72
2023/03/07 03:32:32;;;;;;;2.13;1.45;;;16.50;38.30;;;;;;5135551;27;20690;-73
2023/03/07 03:35:01;;;;;;;2.45;1.10;;;16.50;38.30;;;;;;5136225;27;20195;-73
2023/03/07 03:37:28;;;;;;;1.75;1.33;;;16.50;38.30;;;;;;5135983;27;20674;-75
2023/03/07 03:39:55;;;;;;;1.65;1.40;;;16.50;38.30;;;;;;5135851;27;20201;-72
2023/03/07 03:42:23;;;;;;;1.20;1.08;;;16.50;38.30;;;;;;5135819;27;20770;-72
2023/03/07 03:44:50;;;;;;;1.42;1.00;;;16.40;38.30;;;;;;5136125;27;20241;-75
2023/03/07 03:47:18;;;;;;;1.25;1.10;;;16.40;38.30;;;;;;5135872;27;20216;-77
2023/03/07 03:49:45;;;;;;;1.02;0.88;;;16.40;38.30;;;;;;5135815;27;20224;-76
2023/03/07 03:52:13;;;;;;;1.30;1.05;;;16.40;38.30;;;;;;5135868;27;20651;-74
2023/03/07 03:54:41;;;;;;;2.60;1.33;;;16.40;38.30;;;;;;5134639;27;20214;-72
2023/03/07 03:57:08;;;;;;;1.83;1.20;;;16.40;38.30;;;;;;5135437;27;20210;-72
2023/03/07 03:59:35;;;;;;;1.95;1.30;;;16.40;38.40;;;;;;5135672;27;20543;-73
2023/03/07 04:02:02;;;;;;;2.22;1.38;;;16.40;38.40;;;;;;5135952;27;20189;-72
2023/03/07 04:04:29;;;;;;;1.50;1.30;;;16.40;38.40;;;;;;5135819;27;20184;-74
2023/03/07 04:06:56;;;;;;;3.78;1.40;;;16.40;38.40;;;;;;5135647;27;20237;-72
2023/03/07 04:09:25;;;;;;;1.23;1.00;;;16.40;38.40;;;;;;5135378;27;20208;-74
2023/03/07 04:11:52;;;;;;;2.55;1.20;;;16.40;38.40;;;;;;5135290;27;20642;-72
2023/03/07 04:14:20;;;;;;;2.58;1.23;;;16.40;38.40;;;;;;5135334;27;20212;-72
2023/03/07 04:16:47;;;;;;;1.10;1.00;;;16.40;38.40;;;;;;5135077;27;20229;-73
2023/03/07 04:19:14;;;;;;;2.38;1.20;;;16.40;38.40;;;;;;5099231;27;20697;-73
2023/03/07 04:21:41;;;;;;;2.20;1.15;;;16.40;38.40;;;;;;5134183;27;20639;-76
2023/03/07 04:24:09;;;;;;;2.50;1.17;;;16.40;38.40;;;;;;5133507;27;20266;-75
2023/03/07 04:26:38;;;;;;;1.67;1.30;;;16.40;38.40;;;;;;5123620;27;20204;-72
2023/03/07 04:29:05;;;;;;;1.98;1.20;;;16.40;38.40;;;;;;5125085;27;20240;-76
2023/03/07 04:31:32;;;;;;;2.33;1.33;;;16.30;38.60;;;;;;5135317;27;20710;-73
2023/03/07 04:33:59;;;;;;;2.05;1.10;;;16.40;38.40;;;;;;5119636;27;20665;-75
2023/03/07 04:36:26;;;;;;;2.20;1.20;;;16.30;38.30;;;;;;5114516;28;20233;-76
2023/03/07 04:38:53;;;;;;;2.30;1.20;;;16.40;38.40;;;;;;5114176;28;20217;-73
2023/03/07 04:41:24;;;;;;;2.25;1.13;;;16.40;38.40;;;;;;5114546;28;20185;-73
2023/03/07 04:43:53;;;;;;;2.88;1.40;;;16.40;38.40;;;;;;5133360;27;20219;-72
2023/03/07 04:46:21;;;;;;;1.77;1.15;;;16.40;38.40;;;;;;5135405;27;20197;-74
2023/03/07 04:48:48;;;;;;;2.78;1.30;;;16.40;38.40;;;;;;5134681;27;20281;-75
2023/03/07 04:51:15;;;;;;;3.00;1.17;;;16.40;38.50;;;;;;5134894;27;20192;-75
2023/03/07 04:53:43;;;;;;;1.92;1.40;;;16.40;38.50;;;;;;5134798;27;20782;-72
2023/03/07 04:56:11;;;;;;;2.13;1.38;;;16.30;38.40;;;;;;5134805;27;20237;-72
2023/03/07 04:58:38;;;;;;;1.52;1.38;;;16.30;38.50;;;;;;5134847;27;20219;-72
2023/03/07 05:01:07;;;;;;;1.92;1.20;;;16.30;38.50;;;;;;5134535;27;20192;-72
2023/03/07 05:03:35;;;;;;;3.05;1.30;;;16.30;38.50;;;;;;5134477;27;20209;-72
2023/03/07 05:06:04;;;;;;;2.17;1.05;;;16.30;38.60;;;;;;5134688;27;20241;-72
2023/03/07 05:08:32;;;;;;;1.30;1.20;;;16.40;38.70;;;;;;5134561;27;20228;-72
2023/03/07 05:10:59;;;;;;;1.50;1.00;;;16.30;38.60;;;;;;5134063;27;20277;-72
2023/03/07 05:13:26;;;;;;;2.45;1.05;;;16.30;38.60;;;;;;5134202;27;20212;-72
2023/03/07 05:15:55;;;;;;;3.40;1.30;;;16.30;38.60;;;;;;5133776;27;20560;-72
2023/03/07 05:18:25;;;;;;;1.48;1.20;;;16.30;38.60;;;;;;5133693;27;20236;-71
2023/03/07 05:20:52;;;;;;;1.08;0.98;;;16.30;38.70;;;;;;5133847;27;20685;-71
2023/03/07 05:23:20;;;;;;;2.55;1.10;;;16.30;38.70;;;;;;5134203;27;20212;-72
2023/03/07 05:25:47;;;;;;;2.40;1.50;;;16.30;38.70;;;;;;5133688;27;20188;-72
2023/03/07 05:28:16;;;;;;;2.55;1.05;;;16.30;38.70;;;;;;5133435;27;20212;-72
2023/03/07 05:30:43;;;;;;;1.70;1.40;;;16.30;38.70;;;;;;5133977;27;20215;-71
2023/03/07 05:33:10;;;;;;;1.45;1.10;;;16.30;38.70;;;;;;5133637;27;20760;-72
2023/03/07 05:35:39;;;;;;;1.88;1.27;;;16.30;38.80;;;;;;5133801;27;20295;-72
2023/03/07 05:38:06;;;;;;;1.58;1.25;;;16.30;38.80;;;;;;5133791;27;20212;-71
2023/03/07 05:40:33;;;;;;;2.92;1.42;;;16.20;38.70;;;;;;5134204;27;20195;-71
2023/03/07 05:43:01;;;;;;;1.95;1.13;;;16.20;38.80;;;;;;5133807;27;20215;-73
2023/03/07 05:45:28;;;;;;;1.83;1.10;;;16.30;38.80;;;;;;5132593;27;20193;-72
2023/03/07 05:47:55;;;;;;;1.40;1.30;;;16.30;38.80;;;;;;5133610;27;20212;-72
2023/03/07 05:50:22;;;;;;;4.15;1.67;;;16.30;38.80;;;;;;5133304;27;20212;-72
2023/03/07 05:52:51;;;;;;;1.88;1.13;;;16.40;38.90;;;;;;5133691;27;20212;-72
2023/03/07 05:55:19;;;;;;;2.13;1.50;;;16.40;39.00;;;;;;5133587;27;20237;-74
2023/03/07 05:57:46;;;;;;;3.15;1.10;;;16.40;38.90;;;;;;5133296;27;20272;-73
2023/03/07 06:00:14;;;;;;;1.90;1.17;;;16.40;38.80;;;;;;5133520;27;20642;-75
2023/03/07 06:02:42;;;;;;;2.28;1.42;;;16.50;39.00;;;;;;5133374;27;20237;-73
2023/03/07 06:05:10;;;;;;;3.35;1.23;;;16.50;38.90;;;;;;5133235;27;20188;-72
2023/03/07 06:07:37;;;;;;;0.93;0.90;;;16.50;38.80;;;;;;5132944;27;20216;-71
2023/03/07 06:10:07;;;;;;;2.45;1.15;;;16.50;38.80;;;;;;5133144;27;20624;-76
2023/03/07 06:12:35;;;;;;;1.35;1.08;;;16.50;38.80;;;;;;5133467;27;20219;-73
2023/03/07 06:15:02;;;;;;;1.98;1.10;;;16.60;38.70;;;;;;5133021;27;20245;-73
2023/03/07 06:17:30;;;;;;;3.35;1.30;;;16.60;38.70;;;;;;5133209;27;20192;-71
2023/03/07 06:19:57;;;;;;;1.20;1.10;;;16.70;38.70;;;;;;5133549;27;20200;-72
2023/03/07 06:22:24;;;;;;;1.70;1.02;;;16.70;38.70;;;;;;5132566;27;20240;-73
2023/03/07 06:24:51;;;;;;;1.20;1.10;;;16.70;38.60;;;;;;5133040;27;20747;-72
2023/03/07 06:27:19;;;;;;;3.10;1.23;;;16.70;38.60;;;;;;5133002;27;20237;-73
2023/03/07 06:29:47;;;;;;;2.25;0.90;;;16.80;38.70;;;;;;5132996;27;20212;-77
2023/03/07 06:32:14;;;;;;;1.83;0.70;;;16.80;38.70;;;;;;5133437;27;20612;-73
2023/03/07 06:34:41;;;;;;;1.40;0.95;;;16.90;38.80;;;;;;5133028;27;20184;-74
2023/03/07 06:37:08;;;;;;;1.77;1.10;;;16.90;38.80;;;;;;5133042;27;20758;-73
2023/03/07 06:39:35;;;;;;;0.95;0.90;;;16.90;38.80;;;;;;5132653;27;20212;-73
2023/03/07 06:42:03;;;;;;;2.33;1.10;;;16.90;38.80;;;;;;5132979;27;20180;-72
2023/03/07 06:44:31;;;;;;;3.90;0.90;;;16.90;38.80;;;;;;5132600;27;20272;-72
2023/03/07 06:46:59;;;;;;;1.27;1.00;;;17.00;38.90;;;;;;5132659;27;20184;-72
2023/03/07 06:49:26;;;;;;;1.48;1.13;;;17.00;38.90;;;;;;5132447;27;20285;-72
2023/03/07 06:51:53;;;;;;;2.78;0.90;;;17.00;38.90;;;;;;5132360;27;20599;-72
2023/03/07 06:54:20;;;;;;;2.08;1.25;;;17.00;38.90;;;;;;5132646;27;20272;-72
2023/03/07 06:56:47;;;;;;;0.80;0.80;;;17.10;39.00;;;;;;5132441;27;20184;-72
2023/03/07 06:59:14;;;;;;;2.20;1.08;;;17.10;39.00;;;;;;5132808;27;20220;-72
2023/03/07 07:01:43;;;;;;;1.77;1.00;;;17.10;38.90;;;;;;5132555;27;20216;-72
2023/03/07 07:04:12;;;;;;;1.00;0.80;;;17.10;39.00;;;;;;5132244;27;20260;-72
2023/03/07 07:06:39;;;;;;;1.50;1.10;;;17.10;38.90;;;;;;5132693;27;20599;-73
2023/03/07 07:09:06;;;;;;;0.80;0.80;;;17.20;39.00;;;;;;5132582;27;20227;-72
2023/03/07 07:11:33;;;;;;;3.30;1.02;;;17.20;38.90;;;;;;5132526;27;20634;-72
2023/03/07 07:14:00;;;;;;;1.00;0.90;;;17.20;38.90;;;;;;5132452;27;20218;-72
2023/03/07 07:16:28;;;;;;;2.00;1.10;;;17.20;38.90;;;;;;5130740;28;20188;-72
2023/03/07 07:18:57;;;;;;;0.98;0.88;;;17.20;38.90;;;;;;5131945;27;20303;-72
2023/03/07 07:21:24;;;;;;;1.83;0.90;;;17.30;38.90;;;;;;5132199;27;20189;-73
2023/03/07 07:23:51;;;;;;;0.85;0.85;;;17.20;38.80;;;;;;5132037;27;20220;-72
2023/03/07 07:26:18;;;;;;;1.00;0.82;;;17.30;38.90;;;;;;5131958;27;20711;-72
2023/03/07 07:28:46;;;;;;;1.65;0.90;;;17.30;38.90;;;;;;5131865;27;20216;-72
2023/03/07 07:31:13;;;;;;;0.93;0.77;;;17.30;38.80;;;;;;5132307;27;20707;-71
2023/03/07 07:33:40;;;;;;;1.60;1.02;;;17.30;38.80;;;;;;5131923;28;20737;-74
2023/03/07 07:36:10;;;;;;;1.10;0.88;;;17.30;38.80;;;;;;5131669;27;20575;-72
2023/03/07 07:38:38;;;;;;;1.80;1.00;;;17.40;38.90;;;;;;5131640;27;20217;-71
2023/03/07 07:41:05;;;;;;;2.17;0.88;;;17.40;38.90;;;;;;5132196;27;20200;-72
2023/03/07 07:43:32;;;;;;;1.58;0.90;;;17.40;38.90;;;;;;5130536;28;20584;-75
2023/03/07 07:46:00;;;;;;;1.27;1.00;;;17.40;38.80;;;;;;5132070;27;20588;-76
2023/03/07 07:48:27;;;;;;;1.63;1.10;;;17.40;38.80;;;;;;5132168;27;20216;-72
2023/03/07 07:50:54;;;;;;;1.83;1.20;;;17.50;38.90;;;;;;5131899;27;20632;-74
2023/03/07 07:53:22;;;;;;;1.75;1.08;;;17.50;38.90;;;;;;5132323;27;20212;-72
2023/03/07 07:55:49;;;;;;;3.38;1.10;;;17.40;38.80;;;;;;5132441;27;20189;-72
2023/03/07 07:58:17;;;;;;;2.22;1.10;;;17.50;38.80;;;;;;5135882;27;20216;-73
2023/03/07 08:00:44;;;;;;;1.42;0.93;;;17.50;38.80;;;;;;5135813;27;20189;-73
2023/03/07 08:03:11;;;;;;;1.92;1.10;;;17.50;38.80;;;;;;5136024;27;20216;-74
2023/03/07 08:05:44;;;;;;;2.05;1.15;;;17.50;39.40;;;;;;5135528;27;20253;-71
2023/03/07 08:08:11;;;;;;;2.03;1.02;;;17.50;38.80;;;;;;5135582;27;20216;-73
2023/03/07 08:10:42;;;;;;;2.42;1.15;;;17.60;38.80;;;;;;5135290;27;20212;-73
2023/03/07 08:13:11;;;;;;;1.60;1.10;;;17.60;38.90;;;;;;5135384;27;20278;-73
2023/03/07 08:15:38;;;;;;;1.42;1.08;;;17.60;38.80;;;;;;5135325;27;20185;-75
2023/03/07 08:18:06;;;;;;;1.27;1.10;;;17.60;38.80;;;;;;5134841;27;20220;-74
2023/03/07 08:20:34;;;;;;;2.33;1.40;;;17.60;38.80;;;;;;5135354;27;20189;-73
2023/03/07 08:23:01;;;;;;;2.42;1.20;;;17.60;38.80;;;;;;5126024;27;20212;-74
2023/03/07 08:25:28;;;;;;;2.72;1.33;;;17.60;38.80;;;;;;5135220;27;20185;-76
2023/03/07 08:27:58;;;;;;;3.08;1.02;;;17.60;38.90;;;;;;5133836;27;20212;-75
2023/03/07 08:30:27;;;;;;;2.35;1.08;;;17.60;39.50;;;;;;5135149;27;20271;-74
2023/03/07 08:32:56;;;;;;;3.42;1.50;;;17.60;38.90;;;;;;5122874;27;20892;-73
2023/03/07 08:35:24;;;;;;;2.55;1.20;;;17.60;38.90;;;;;;5119184;27;20241;-73
2023/03/07 08:37:54;;;;;;;2.15;1.23;;;17.60;38.90;;;;;;5114157;28;20189;-73
2023/03/07 08:40:22;;;;;;;1.80;1.23;;;17.60;39.00;;;;;;5114381;27;20200;-71
2023/03/07 08:42:50;;;;;;;1.85;1.13;;;17.60;39.10;;;;;;5114687;28;20646;-74
2023/03/07 08:45:19;;;;;;;1.85;1.05;;;17.60;39.00;;;;;;5114763;28;20666;-73
2023/03/07 08:47:46;;;;;;;1.70;1.05;;;17.60;39.00;;;;;;5117656;27;20193;-74
2023/03/07 08:50:13;;;;;;;1.58;1.35;;;17.60;39.10;;;;;;5130178;27;20212;-75
2023/03/07 08:52:43;;;;;;;1.45;1.08;;;17.60;39.10;;;;;;5128212;27;20196;-73
2023/03/07 08:55:11;;;;;;;4.20;1.27;;;17.60;39.10;;;;;;5125480;27;20201;-73
2023/03/07 08:57:38;;;;;;;1.92;1.20;;;17.70;39.10;;;;;;5119064;27;20250;-75
2023/03/07 09:00:09;;;;;;;2.35;1.20;;;17.70;39.10;;;;;;5114459;27;20197;-76
2023/03/07 09:02:38;;;;;;;1.90;1.10;;;17.70;39.80;;;;;;5120553;27;20634;-74
2023/03/07 09:05:06;;;;;;;1.55;1.35;;;17.70;39.10;;;;;;5134804;27;20275;-76
2023/03/07 09:07:33;;;;;;;2.65;1.30;;;17.70;39.10;;;;;;5133970;27;20257;-73
2023/03/07 09:10:00;;;;;;;5.70;1.20;;;17.70;39.00;;;;;;5112329;27;20229;-76
2023/03/07 09:12:27;;;;;;;2.50;1.38;;;17.70;39.10;;;;;;5117222;27;20250;-75
2023/03/07 09:14:55;;;;;;;3.85;1.25;;;17.80;39.10;;;;;;5113554;28;20213;-77
2023/03/07 09:17:22;;;;;;;3.10;1.45;;;17.80;39.10;;;;;;5128557;27;20193;-77
2023/03/07 09:19:51;;;;;;;3.05;1.50;;;17.80;39.10;;;;;;5129486;27;20272;-77
2023/03/07 09:22:18;;;;;;;2.08;1.00;;;17.80;39.00;;;;;;5125878;27;20200;-77
2023/03/07 09:24:45;;;;;;;2.70;1.50;;;17.80;39.00;;;;;;5132654;27;20713;-75
2023/03/07 09:27:12;;;;;;;2.42;1.20;;;17.80;39.00;;;;;;5133962;27;20192;-77
2023/03/07 09:29:40;;;;;;;2.45;1.40;;;17.80;39.00;;;;;;5132253;27;20573;-76
2023/03/07 09:32:07;;;;;;;2.75;1.48;;;17.90;39.10;;;;;;5117857;27;20713;-77
2023/03/07 09:34:35;;;;;;;2.42;1.40;;;17.90;39.00;;;;;;5123640;27;20224;-72
2023/03/07 09:37:03;;;;;;;2.90;1.27;;;17.90;39.00;;;;;;5133714;27;20254;-75
2023/03/07 09:39:30;;;;;;;2.15;1.25;;;17.90;39.10;;;;;;5126801;27;20216;-77
2023/03/07 09:42:21;;;;;;;2.80;1.30;;;17.90;39.10;;;;;;5116310;27;20201;-77
2023/03/07 09:45:13;;;;;;;2.85;1.38;;;17.90;39.10;;;;;;5133715;27;20212;-77
2023/03/07 09:48:04;;;;;;;1.50;1.02;;;17.90;39.10;;;;;;5122917;27;20184;-76
2023/03/07 09:50:39;;;;;;;3.22;1.30;;;17.90;39.10;;;;;;5133144;27;20701;-77
2023/03/07 09:53:18;;;;;;;2.97;1.25;;;17.90;39.10;;;;;;5132331;27;20199;-72
2023/03/07 09:55:50;;;;;;;4.68;1.30;;;17.90;39.10;;;;;;5123725;27;20621;-77
2023/03/07 09:58:23;;;;;;;1.40;1.23;;;18.00;39.20;;;;;;5114144;27;20256;-77
2023/03/07 10:00:56;;;;;;;3.00;1.42;;;17.90;39.10;;;;;;5122456;27;20245;-76
2023/03/07 10:03:32;;;;;;;2.55;1.50;;;18.00;39.10;;;;;;5132490;27;20717;-75
2023/03/07 10:06:08;;;;;;;2.45;1.27;;;18.00;39.20;;;;;;5133402;27;20188;-76
2023/03/07 10:08:37;;;;;;;2.75;1.23;;;18.00;39.20;;;;;;5133152;27;20259;-73
2023/03/07 10:11:21;;;;;;;3.42;1.25;;;18.00;39.20;;;;;;5133164;27;20216;-77
2023/03/07 10:14:04;;;;;;;3.42;1.38;;;18.00;39.10;;;;;;5133164;27;20212;-78
2023/03/07 10:16:38;;;;;;;1.38;1.20;;;18.00;39.10;;;;;;5132983;27;20214;-76
2023/03/07 10:19:14;;;;;;;1.63;1.15;;;18.00;39.20;;;;;;5131105;27;20697;-76
2023/03/07 10:21:49;;;;;;;1.70;1.23;;;18.10;39.20;;;;;;5129069;27;20200;-73
2023/03/07 10:24:46;;;;;;;2.35;1.20;;;18.10;39.30;;;;;;5115441;27;20220;-74
2023/03/07 10:27:18;;;;;;;1.90;1.10;;;18.10;39.30;;;;;;5121701;27;20305;-73
2023/03/07 10:29:47;;;;;;;2.17;1.10;;;18.10;39.30;;;;;;5107244;27;20223;-76
2023/03/07 10:32:21;;;;;;;2.47;1.50;;;18.10;39.30;;;;;;5122578;27;20201;-73
2023/03/07 10:34:55;;;;;;;1.75;1.20;;;18.00;39.20;;;;;;5127091;27;20220;-74
2023/03/07 10:37:29;;;;;;;3.78;1.33;;;18.10;39.40;;;;;;5116561;27;20228;-76
2023/03/07 10:40:00;;;;;;;2.75;1.27;;;18.10;39.40;;;;;;5123100;27;20227;-76
2023/03/07 10:42:35;;;;;;;1.75;1.00;;;18.10;39.30;;;;;;5118635;27;20205;-76
2023/03/07 10:45:03;;;;;;;1.48;1.25;;;18.10;39.30;;;;;;5116749;27;20216;-76
2023/03/07 10:47:30;;;;;;;2.53;1.25;;;18.10;39.30;;;;;;5121715;27;20808;-72
2023/03/07 10:50:07;;;;;;;1.48;1.30;;;18.10;39.30;;;;;;5118331;27;20273;-72
2023/03/07 10:52:40;;;;;;;2.00;1.30;;;18.10;39.30;;;;;;5113352;27;20598;-76
2023/03/07 10:55:33;;;;;;;3.05;1.10;;;18.10;39.30;;;;;;5114215;27;20228;-76
2023/03/07 10:58:15;;;;;;;2.97;1.27;;;18.10;39.30;;;;;;5068709;28;20280;-77
2023/03/07 11:00:44;;;;;;;3.78;1.13;;;18.20;39.40;;;;;;5076216;28;20278;-76
2023/03/07 11:03:26;;;;;;;3.38;1.40;;;18.20;39.40;;;;;;5071437;28;20272;-77
2023/03/07 11:05:54;;;;;;;2.55;1.50;;;18.20;39.40;;;;;;5071760;28;20261;-76
2023/03/07 11:08:27;;;;;;;3.83;1.52;;;18.20;39.40;;;;;;5079375;28;20203;-74
2023/03/07 11:10:56;;;;;;;2.72;1.40;;;18.20;39.50;;;;;;5077658;28;20225;-76
2023/03/07 11:13:24;;;;;;;4.80;1.85;;;18.20;39.50;;;;;;5069856;28;20288;-75
2023/03/07 11:15:52;;;;;;;1.67;1.48;;;18.20;39.50;;;;;;5081272;28;20210;-77
2023/03/07 11:18:30;;;;;;;2.58;1.45;;;18.20;39.60;;;;;;5074017;28;20225;-76
2023/03/07 11:20:58;;;;;;;2.15;1.50;;;18.20;39.60;;;;;;5080141;28;20190;-77
2023/03/07 11:23:29;;;;;;;1.58;1.10;;;18.20;39.60;;;;;;5072867;28;20260;-76
2023/03/07 11:26:15;;;;;;;3.00;1.20;;;18.20;39.60;;;;;;5078224;28;20194;-76
2023/03/07 11:28:42;;;;;;;3.33;1.60;;;18.20;39.70;;;;;;5074718;28;20218;-75
2023/03/07 11:31:22;;;;;;;1.55;1.20;;;18.20;39.70;;;;;;5081954;28;20258;-76
2023/03/07 11:33:55;;;;;;;2.30;1.38;;;18.20;39.70;;;;;;5073137;28;20642;-73
2023/03/07 11:36:30;;;;;;;2.05;1.20;;;18.20;39.70;;;;;;5118333;27;21137;-76
2023/03/07 11:39:02;;;;;;;3.13;1.38;;;18.20;39.70;;;;;;5124576;27;20265;-77
2023/03/07 11:41:35;;;;;;;2.50;1.58;;;18.20;39.70;;;;;;5120896;27;20250;-77
2023/03/07 11:44:26;;;;;;;2.35;1.50;;;18.30;39.90;;;;;;5118838;27;20213;-75
2023/03/07 11:47:21;;;;;;;3.30;1.48;;;18.30;39.90;;;;;;5115992;27;20193;-73
2023/03/07 11:50:14;;;;;;;2.63;1.25;;;18.20;39.90;;;;;;5124908;27;20277;-72
2023/03/07 11:53:07;;;;;;;2.00;1.48;;;18.20;39.80;;;;;;5125230;27;20188;-74
2023/03/07 11:55:41;;;;;;;1.83;1.33;;;18.30;39.90;;;;;;5117623;27;20221;-71
2023/03/07 11:58:41;;;;;;;2.55;1.45;;;18.20;39.90;;;;;;5119851;27;20192;-72
2023/03/07 12:01:20;;;;;;;1.65;1.02;;;18.30;40.00;;;;;;5122467;27;20197;-73
2023/03/07 12:04:38;;;;;;;3.78;1.67;;;18.30;40.00;;;;;;5130109;27;20216;-75
2023/03/07 12:07:22;;;;;;;4.10;1.25;;;18.30;40.00;;;;;;5102884;27;20200;-74
2023/03/07 12:09:57;;;;;;;3.00;1.30;;;18.30;40.00;;;;;;5124373;27;20713;-74
2023/03/07 12:12:37;;;;;;;1.85;1.15;;;18.30;40.00;;;;;;5116467;27;20216;-76
2023/03/07 12:15:16;;;;;;;4.50;1.60;;;18.30;40.00;;;;;;5119399;27;20220;-77
2023/03/07 12:17:55;;;;;;;2.65;1.33;;;18.30;40.00;;;;;;5120963;27;20674;-74
2023/03/07 12:20:37;;;;;;;3.35;1.42;;;18.30;40.00;;;;;;5120863;27;20228;-72
2023/03/07 12:23:11;;;;;;;2.88;1.23;;;18.30;40.00;;;;;;5122606;27;20285;-75
2023/03/07 12:25:42;;;;;;;4.10;1.40;;;18.30;40.00;;;;;;5124132;27;20265;-75
2023/03/07 12:28:19;;;;;;;5.43;1.40;;;18.30;40.20;;;;;;5124623;27;20200;-73
2023/03/07 12:30:59;;;;;;;1.55;1.10;;;18.40;40.10;;;;;;5127140;27;20220;-74
2023/03/07 12:33:40;;;;;;;2.35;1.10;;;18.40;40.00;;;;;;5113752;27;20246;-77
2023/03/07 12:36:16;;;;;;;2.75;1.40;;;18.40;40.00;;;;;;5120622;27;20257;-72
2023/03/07 12:38:51;;;;;;;5.35;1.55;;;18.40;40.00;;;;;;5118912;27;20196;-77
2023/03/07 12:41:39;;;;;;;2.95;1.40;;;18.50;40.10;;;;;;5118312;27;20192;-75
2023/03/07 12:44:13;;;;;;;2.70;1.63;;;18.50;40.20;;;;;;5112312;27;20225;-76
2023/03/07 12:46:46;;;;;;;7.68;1.63;;;18.50;40.10;;;;;;5113083;27;20198;-75
2023/03/07 12:49:24;;;;;;;3.85;1.42;;;18.50;40.30;;;;;;5119394;27;20220;-75
2023/03/07 12:51:55;;;;;;;4.57;1.77;;;18.60;40.30;;;;;;5115101;27;20239;-74
2023/03/07 12:54:28;;;;;;;4.93;1.63;;;18.60;40.40;;;;;;5112974;27;20221;-75
2023/03/07 12:56:59;;;;;;;16.00;1.65;;;18.60;40.20;;;;;;5104326;27;20212;-75
2023/03/07 12:59:27;;;;;;;12.52;1.80;;;18.60;40.30;;;;;;5116152;27;20224;-71
2023/03/07 13:02:02;;;;;;;8.15;1.38;;;18.70;41.10;;;;;;5123305;27;21138;-74
2023/03/07 13:04:52;;;;;;;2.72;1.40;;;18.70;40.50;;;;;;5110664;27;20330;-73